LIC0195 NZNS-NZRO
Flight info
| Callsign | LIC0195 |
|---|---|
| Flight time | 0h 41m |
| Altitude | 37000 |
| Route | SNAPA Q438 TM H247 IBAMU |
| Aircraft | C750/M-SBDE3FGHRWXY/S |
Departure
| Time | 2026-05-04 16:29 |
|---|---|
| Airport | Nelson Airport (NZNS) |
Arrival
| Time | 2026-05-04 17:10 |
|---|---|
| Airport | Rotorua Regional Airport (NZRO) |
| Time | Latitude | Longitude | Altitude | Speed | Heading |
|---|---|---|---|---|---|
| 2026-05-04 16:23 | -41.29940 | 173.22423 | 16 ft | 0 kts | 136° |
| 2026-05-04 16:26 | -41.29962 | 173.22443 | 14 ft | 5 kts | 167° |
| 2026-05-04 16:26 | -41.30008 | 173.22250 | 9 ft | 12 kts | 221° |
| 2026-05-04 16:27 | -41.30129 | 173.22110 | 9 ft | 11 kts | 220° |
| 2026-05-04 16:28 | -41.30176 | 173.21974 | 6 ft | 9 kts | 303° |
| 2026-05-04 16:28 | -41.30124 | 173.21913 | 5 ft | 0 kts | 30° |
| 2026-05-04 16:29 | -41.28121 | 173.24119 | 1289 ft | 144 kts | 31° |
| 2026-05-04 16:30 | -41.25423 | 173.25726 | 2870 ft | 191 kts | 23° |
| 2026-05-04 16:31 | -41.22667 | 173.27350 | 3976 ft | 243 kts | 22° |
| 2026-05-04 16:31 | -41.17709 | 173.30569 | 6890 ft | 276 kts | 36° |
| 2026-05-04 16:32 | -41.13129 | 173.35295 | 10423 ft | 282 kts | 37° |
| 2026-05-04 16:33 | -41.09795 | 173.38672 | 11339 ft | 328 kts | 37° |
| 2026-05-04 16:33 | -41.05978 | 173.42549 | 12545 ft | 350 kts | 37° |
| 2026-05-04 16:34 | -41.02055 | 173.46521 | 14167 ft | 359 kts | 37° |
| 2026-05-04 16:34 | -41.00060 | 173.48540 | 14892 ft | 363 kts | 37° |
| 2026-05-04 16:35 | -40.93940 | 173.54723 | 17065 ft | 374 kts | 37° |
| 2026-05-04 16:35 | -40.87589 | 173.60996 | 19278 ft | 387 kts | 33° |
| 2026-05-04 16:36 | -40.85352 | 173.62991 | 20017 ft | 390 kts | 34° |
| 2026-05-04 16:36 | -40.80850 | 173.67094 | 21520 ft | 396 kts | 34° |
| 2026-05-04 16:37 | -40.76238 | 173.71220 | 22976 ft | 404 kts | 35° |
| 2026-05-04 16:37 | -40.73904 | 173.73323 | 23695 ft | 408 kts | 35° |
| 2026-05-04 16:37 | -40.69171 | 173.77577 | 24930 ft | 415 kts | 35° |
| 2026-05-04 16:38 | -40.64338 | 173.81904 | 26025 ft | 424 kts | 35° |
| 2026-05-04 16:39 | -40.56940 | 173.88516 | 27642 ft | 437 kts | 35° |
| 2026-05-04 16:39 | -40.51859 | 173.93052 | 28763 ft | 445 kts | 35° |
| 2026-05-04 16:40 | -40.46683 | 173.97657 | 29844 ft | 454 kts | 36° |
| 2026-05-04 16:40 | -40.41406 | 174.02348 | 30829 ft | 462 kts | 35° |
| 2026-05-04 16:41 | -40.36045 | 174.07102 | 31845 ft | 466 kts | 35° |
| 2026-05-04 16:41 | -40.28035 | 174.14188 | 33854 ft | 461 kts | 35° |
| 2026-05-04 16:42 | -40.20063 | 174.21220 | 35599 ft | 461 kts | 35° |
| 2026-05-04 16:43 | -40.14733 | 174.25913 | 36689 ft | 462 kts | 34° |
| 2026-05-04 16:43 | -40.09384 | 174.30612 | 37535 ft | 470 kts | 34° |
| 2026-05-04 16:43 | -40.06632 | 174.33025 | 37534 ft | 483 kts | 33° |
| 2026-05-04 16:44 | -39.95016 | 174.43190 | 37551 ft | 517 kts | 33° |
| 2026-05-04 16:45 | -39.89006 | 174.48432 | 37556 ft | 522 kts | 33° |
| 2026-05-04 16:46 | -39.73820 | 174.61627 | 37563 ft | 527 kts | 33° |
| 2026-05-04 16:47 | -39.61667 | 174.72133 | 37569 ft | 526 kts | 33° |
| 2026-05-04 16:48 | -39.49460 | 174.82639 | 37576 ft | 527 kts | 33° |
| 2026-05-04 16:49 | -39.37242 | 174.93110 | 37581 ft | 527 kts | 33° |
| 2026-05-04 16:50 | -39.31175 | 174.98294 | 37226 ft | 505 kts | 33° |
| 2026-05-04 16:50 | -39.25577 | 175.03065 | 35951 ft | 464 kts | 33° |
| 2026-05-04 16:51 | -39.20249 | 175.07603 | 34486 ft | 457 kts | 33° |
| 2026-05-04 16:51 | -39.17591 | 175.09859 | 33680 ft | 456 kts | 33° |
| 2026-05-04 16:51 | -39.12374 | 175.14285 | 32139 ft | 442 kts | 33° |
| 2026-05-04 16:52 | -39.07309 | 175.18576 | 30673 ft | 430 kts | 33° |
| 2026-05-04 16:52 | -39.04821 | 175.20681 | 29834 ft | 425 kts | 33° |
| 2026-05-04 16:53 | -38.99948 | 175.24801 | 27677 ft | 412 kts | 32° |
| 2026-05-04 16:53 | -38.92973 | 175.30683 | 24474 ft | 390 kts | 32° |
| 2026-05-04 16:54 | -38.90888 | 175.32876 | 23224 ft | 386 kts | 42° |
| 2026-05-04 16:55 | -38.83435 | 175.42223 | 21311 ft | 372 kts | 43° |
| 2026-05-04 16:55 | -38.79726 | 175.46860 | 20725 ft | 371 kts | 43° |
| 2026-05-04 16:56 | -38.76030 | 175.51438 | 20140 ft | 368 kts | 43° |
| 2026-05-04 16:56 | -38.70542 | 175.58246 | 19273 ft | 364 kts | 43° |
| 2026-05-04 16:57 | -38.68724 | 175.60494 | 18992 ft | 363 kts | 43° |
| 2026-05-04 16:57 | -38.65114 | 175.64958 | 18357 ft | 359 kts | 43° |
| 2026-05-04 16:58 | -38.59785 | 175.71532 | 16801 ft | 350 kts | 43° |
| 2026-05-04 16:58 | -38.58040 | 175.73682 | 16305 ft | 347 kts | 43° |
| 2026-05-04 16:59 | -38.54598 | 175.77919 | 15325 ft | 341 kts | 43° |
| 2026-05-04 17:00 | -38.47965 | 175.86067 | 13321 ft | 306 kts | 44° |
| 2026-05-04 17:00 | -38.43544 | 175.91485 | 11680 ft | 284 kts | 43° |
| 2026-05-04 17:01 | -38.40995 | 175.94603 | 10210 ft | 237 kts | 43° |
| 2026-05-04 17:01 | -38.38293 | 175.97321 | 8647 ft | 252 kts | 38° |
| 2026-05-04 17:02 | -38.35806 | 175.99837 | 7271 ft | 230 kts | 38° |
| 2026-05-04 17:02 | -38.33298 | 176.02345 | 6391 ft | 227 kts | 37° |
| 2026-05-04 17:03 | -38.32072 | 176.03573 | 6043 ft | 222 kts | 37° |
| 2026-05-04 17:03 | -38.30873 | 176.04771 | 5687 ft | 217 kts | 37° |
| 2026-05-04 17:03 | -38.28535 | 176.07108 | 4973 ft | 211 kts | 36° |
| 2026-05-04 17:04 | -38.26365 | 176.09276 | 4216 ft | 191 kts | 36° |
| 2026-05-04 17:04 | -38.24347 | 176.11289 | 4025 ft | 182 kts | 36° |
| 2026-05-04 17:05 | -38.22440 | 176.13440 | 4040 ft | 182 kts | 40° |
| 2026-05-04 17:05 | -38.20671 | 176.15512 | 4008 ft | 154 kts | 40° |
| 2026-05-04 17:06 | -38.19267 | 176.17169 | 4008 ft | 134 kts | 40° |
| 2026-05-04 17:06 | -38.18578 | 176.17979 | 3898 ft | 136 kts | 40° |
| 2026-05-04 17:07 | -38.17276 | 176.19515 | 3518 ft | 123 kts | 40° |
| 2026-05-04 17:07 | -38.16854 | 176.20012 | 3397 ft | 122 kts | 40° |
| 2026-05-04 17:07 | -38.16048 | 176.21026 | 3156 ft | 124 kts | 48° |
| 2026-05-04 17:07 | -38.15546 | 176.21919 | 2978 ft | 125 kts | 57° |
| 2026-05-04 17:08 | -38.15154 | 176.22907 | 2792 ft | 125 kts | 68° |
| 2026-05-04 17:08 | -38.14753 | 176.25018 | 2418 ft | 122 kts | 87° |
| 2026-05-04 17:08 | -38.14745 | 176.26084 | 2213 ft | 120 kts | 95° |
| 2026-05-04 17:09 | -38.14856 | 176.27129 | 2026 ft | 119 kts | 101° |
| 2026-05-04 17:09 | -38.14805 | 176.28175 | 1820 ft | 120 kts | 74° |
| 2026-05-04 17:09 | -38.14396 | 176.29090 | 1613 ft | 120 kts | 54° |
| 2026-05-04 17:10 | -38.13012 | 176.30261 | 1190 ft | 122 kts | 26° |
| 2026-05-04 17:10 | -38.10908 | 176.31523 | 946 ft | 41 kts | 25° |
| 2026-05-04 17:11 | -38.10783 | 176.31594 | 947 ft | 16 kts | 26° |
| 2026-05-04 17:11 | -38.10672 | 176.31663 | 946 ft | 20 kts | 26° |
| 2026-05-04 17:11 | -38.10403 | 176.31822 | 945 ft | 23 kts | 25° |
| 2026-05-04 17:12 | -38.10253 | 176.31910 | 947 ft | 24 kts | 24° |
| 2026-05-04 17:12 | -38.10071 | 176.31992 | 947 ft | 0 kts | 359° |
| 2026-05-04 17:13 | -38.10110 | 176.31995 | 948 ft | 0 kts | 205° |
| 2026-05-04 17:14 | -38.10250 | 176.31913 | 946 ft | 23 kts | 206° |
| 2026-05-04 17:14 | -38.10402 | 176.31823 | 945 ft | 25 kts | 204° |
| 2026-05-04 17:14 | -38.10737 | 176.31624 | 947 ft | 27 kts | 206° |
| 2026-05-04 17:15 | -38.10869 | 176.31542 | 946 ft | 13 kts | 191° |
| 2026-05-04 17:15 | -38.10912 | 176.31575 | 946 ft | 6 kts | 117° |
| 2026-05-04 17:16 | -38.10898 | 176.31702 | 944 ft | 0 kts | 76° |
| 2026-05-04 17:16 | -38.10897 | 176.31712 | 944 ft | 0 kts | 77° |